Time;durP1;ratioP1;P1;durP2;ratioP2;P2;SDS_P1;SDS_P2;PMS_P1;PMS_P2;Temp;Humidity;BMP_temperature;BMP_pressure;BME280_temperature;BME280_humidity;BME280_pressure;Samples;Min_cycle;Max_cycle;Signal;HPM_P1;HPM_P2
2023/09/13 00:00:14;;;;;;;;;;;;;;;;;;5016030;28;19910;-20
2023/09/13 00:02:40;;;;;;;;;;;;;;;;;;5018342;28;19932;-22
2023/09/13 00:05:06;;;;;;;;;;;;;;;;;;5017205;28;19961;-22
2023/09/13 00:07:32;;;;;;;;;;;;;;;;;;5018551;28;19914;-24
2023/09/13 00:09:58;;;;;;;;;;;;;;;;;;5018222;28;19909;-24
2023/09/13 00:12:25;;;;;;;;;;;;;;;;;;5018173;28;20309;-20
2023/09/13 00:14:51;;;;;;;;;;;;;;;;;;5018114;28;19964;-21
2023/09/13 00:17:17;;;;;;;;;;;;;;;;;;5018132;28;19918;-19
2023/09/13 00:19:43;;;;;;;;;;;;;;;;;;5018104;28;19910;-21
2023/09/13 00:22:09;;;;;;;;;;;;;;;;;;5017946;28;20008;-23
2023/09/13 00:24:35;;;;;;;;;;;;;;;;;;5017961;28;20250;-21
2023/09/13 00:27:01;;;;;;;;;;;;;;;;;;5017056;28;20293;-22
2023/09/13 00:29:30;;;;;;;;;;;;;;;;;;5017943;28;19910;-21
2023/09/13 00:31:56;;;;;;;;;;;;;;;;;;5017771;28;19909;-21
2023/09/13 00:34:22;;;;;;;;;;;;;;;;;;5017798;28;19913;-23
2023/09/13 00:36:48;;;;;;;;;;;;;;;;;;5017767;28;19937;-21
2023/09/13 00:39:14;;;;;;;;;;;;;;;;;;5017703;28;19909;-21
2023/09/13 00:41:40;;;;;;;;;;;;;;;;;;5017663;28;19910;-20
2023/09/13 00:44:06;;;;;;;;;;;;;;;;;;5017498;28;19914;-20
2023/09/13 00:46:32;;;;;;;;;;;;;;;;;;5017820;28;19909;-21
2023/09/13 00:48:58;;;;;;;;;;;;;;;;;;5016582;28;19910;-22
2023/09/13 00:51:24;;;;;;;;;;;;;;;;;;5017775;28;19910;-22
2023/09/13 00:53:50;;;;;;;;;;;;;;;;;;5017443;28;20247;-21
2023/09/13 00:56:16;;;;;;;;;;;;;;;;;;5017476;28;19910;-21
2023/09/13 00:58:42;;;;;;;;;;;;;;;;;;5017430;28;19920;-21
2023/09/13 01:01:09;;;;;;;;;;;;;;;;;;5017648;28;19916;-23
2023/09/13 01:03:35;;;;;;;;;;;;;;;;;;5017034;28;19917;-20
2023/09/13 01:06:01;;;;;;;;;;;;;;;;;;5017288;28;19925;-23
2023/09/13 01:08:27;;;;;;;;;;;;;;;;;;5018290;28;20009;-24
2023/09/13 01:10:53;;;;;;;;;;;;;;;;;;5017325;28;19909;-22
2023/09/13 01:13:19;;;;;;;;;;;;;;;;;;5016973;28;19921;-22
2023/09/13 01:15:45;;;;;;;;;;;;;;;;;;5017073;28;19910;-21
2023/09/13 01:18:11;;;;;;;;;;;;;;;;;;5017050;28;20271;-22
2023/09/13 01:20:37;;;;;;;;;;;;;;;;;;5016922;28;20288;-22
2023/09/13 01:23:03;;;;;;;;;;;;;;;;;;5016849;28;19910;-23
2023/09/13 01:25:29;;;;;;;;;;;;;;;;;;5016815;28;19914;-22
2023/09/13 01:27:55;;;;;;;;;;;;;;;;;;5016846;28;20337;-22
2023/09/13 01:30:21;;;;;;;;;;;;;;;;;;5016797;28;19910;-22
2023/09/13 01:32:47;;;;;;;;;;;;;;;;;;5016951;28;19914;-20
2023/09/13 01:35:12;;;;;;;;;;;;;;;;;;5016686;28;19917;-21
2023/09/13 01:37:38;;;;;;;;;;;;;;;;;;5017422;28;19910;-21
2023/09/13 01:40:06;;;;;;;;;;;;;;;;;;5016864;28;19909;-21
2023/09/13 01:42:32;;;;;;;;;;;;;;;;;;5016494;28;19909;-21
2023/09/13 01:44:58;;;;;;;;;;;;;;;;;;5016488;28;19924;-21
2023/09/13 01:47:24;;;;;;;;;;;;;;;;;;5016548;28;19921;-22
2023/09/13 01:49:50;;;;;;;;;;;;;;;;;;5015516;28;20262;-20
2023/09/13 01:52:16;;;;;;;;;;;;;;;;;;5016311;28;20387;-20
2023/09/13 01:54:42;;;;;;;;;;;;;;;;;;5015311;28;19909;-21
2023/09/13 01:57:08;;;;;;;;;;;;;;;;;;5016214;28;19921;-20
2023/09/13 01:59:34;;;;;;;;;;;;;;;;;;5016456;28;19949;-21
2023/09/13 02:02:00;;;;;;;;;;;;;;;;;;5016171;28;20319;-22
2023/09/13 02:04:31;;;;;;;;;;;;;;;;;;5016396;28;19926;-22
2023/09/13 02:06:57;;;;;;;;;;;;;;;;;;5016423;28;20241;-20
2023/09/13 02:09:23;;;;;;;;;;;;;;;;;;5016037;28;19910;-22
2023/09/13 02:11:49;;;;;;;;;;;;;;;;;;5015980;28;19921;-20
2023/09/13 02:14:15;;;;;;;;;;;;;;;;;;5015003;28;20001;-20
2023/09/13 02:16:41;;;;;;;;;;;;;;;;;;5015931;28;20014;-23
2023/09/13 02:19:07;;;;;;;;;;;;;;;;;;5015844;28;20329;-20
2023/09/13 02:21:33;;;;;;;;;;;;;;;;;;5015874;28;19910;-25
2023/09/13 02:23:59;;;;;;;;;;;;;;;;;;5015215;28;19913;-20
2023/09/13 02:26:25;;;;;;;;;;;;;;;;;;5016048;28;20298;-22
2023/09/13 02:28:51;;;;;;;;;;;;;;;;;;5015750;28;20352;-32
2023/09/13 02:31:17;;;;;;;;;;;;;;;;;;5015950;28;19913;-22
2023/09/13 02:33:43;;;;;;;;;;;;;;;;;;5014616;28;20027;-21
2023/09/13 02:36:09;;;;;;;;;;;;;;;;;;5015591;28;20257;-21
2023/09/13 02:38:35;;;;;;;;;;;;;;;;;;5014574;28;19916;-22
2023/09/13 02:41:01;;;;;;;;;;;;;;;;;;5015551;28;19918;-20
2023/09/13 02:43:27;;;;;;;;;;;;;;;;;;5015538;28;19936;-21
2023/09/13 02:45:52;;;;;;;;;;;;;;;;;;5015320;28;20367;-21
2023/09/13 02:48:18;;;;;;;;;;;;;;;;;;5015464;28;20256;-22
2023/09/13 02:50:44;;;;;;;;;;;;;;;;;;5015393;28;19913;-23
2023/09/13 02:53:10;;;;;;;;;;;;;;;;;;5015304;28;19910;-20
2023/09/13 02:55:36;;;;;;;;;;;;;;;;;;5015298;28;19909;-21
2023/09/13 02:58:02;;;;;;;;;;;;;;;;;;5015292;28;19916;-20
2023/09/13 03:00:29;;;;;;;;;;;;;;;;;;5015540;28;20330;-23
2023/09/13 03:02:55;;;;;;;;;;;;;;;;;;5015037;28;19909;-20
2023/09/13 03:05:20;;;;;;;;;;;;;;;;;;5015713;28;19921;-21
2023/09/13 03:07:47;;;;;;;;;;;;;;;;;;5015185;28;19980;-23
2023/09/13 03:10:13;;;;;;;;;;;;;;;;;;5015194;28;19909;-24
2023/09/13 03:12:39;;;;;;;;;;;;;;;;;;5015319;28;19917;-22
2023/09/13 03:15:05;;;;;;;;;;;;;;;;;;5015321;28;19949;-21
2023/09/13 03:17:31;;;;;;;;;;;;;;;;;;5015052;28;19993;-21
2023/09/13 03:19:57;;;;;;;;;;;;;;;;;;5015096;28;19953;-21
2023/09/13 03:22:23;;;;;;;;;;;;;;;;;;5014945;28;20268;-23
2023/09/13 03:24:48;;;;;;;;;;;;;;;;;;5014925;28;20403;-23
2023/09/13 03:27:14;;;;;;;;;;;;;;;;;;5014947;28;19920;-21
2023/09/13 03:29:41;;;;;;;;;;;;;;;;;;5014923;28;19920;-21
2023/09/13 03:32:07;;;;;;;;;;;;;;;;;;5015089;28;19913;-21
2023/09/13 03:34:32;;;;;;;;;;;;;;;;;;5014185;28;19910;-21
2023/09/13 03:36:58;;;;;;;;;;;;;;;;;;5018928;28;20282;-21
2023/09/13 03:39:28;;;;;;;;;;;;;;;;;;5017840;28;20245;-21
2023/09/13 03:41:54;;;;;;;;;;;;;;;;;;5018697;28;19909;-22
2023/09/13 03:44:20;;;;;;;;;;;;;;;;;;5017700;28;20008;-20
2023/09/13 03:46:46;;;;;;;;;;;;;;;;;;5018929;28;19910;-21
2023/09/13 03:49:12;;;;;;;;;;;;;;;;;;5017553;28;20345;-23
2023/09/13 03:51:38;;;;;;;;;;;;;;;;;;5018368;28;20304;-21
2023/09/13 03:54:04;;;;;;;;;;;;;;;;;;5017310;28;19984;-22
2023/09/13 03:56:30;;;;;;;;;;;;;;;;;;5018315;28;20313;-21
2023/09/13 03:58:56;;;;;;;;;;;;;;;;;;5018374;28;19935;-21
2023/09/13 04:01:22;;;;;;;;;;;;;;;;;;5017335;28;19914;-23
2023/09/13 04:03:48;;;;;;;;;;;;;;;;;;5017873;28;20221;-22
2023/09/13 04:06:14;;;;;;;;;;;;;;;;;;5018091;28;19910;-24
2023/09/13 04:08:42;;;;;;;;;;;;;;;;;;5018007;28;19979;-22
2023/09/13 04:11:08;;;;;;;;;;;;;;;;;;5018055;28;19909;-22
2023/09/13 04:13:34;;;;;;;;;;;;;;;;;;5017565;28;19961;-20
2023/09/13 04:16:01;;;;;;;;;;;;;;;;;;5017680;28;19916;-23
2023/09/13 04:18:27;;;;;;;;;;;;;;;;;;5017753;28;19909;-21
2023/09/13 04:20:53;;;;;;;;;;;;;;;;;;5016565;28;20348;-22
2023/09/13 04:23:19;;;;;;;;;;;;;;;;;;5017461;28;19921;-21
2023/09/13 04:25:45;;;;;;;;;;;;;;;;;;5016460;28;19914;-20
2023/09/13 04:28:11;;;;;;;;;;;;;;;;;;5017466;28;19909;-21
2023/09/13 04:30:37;;;;;;;;;;;;;;;;;;5017653;28;19917;-22
2023/09/13 04:33:03;;;;;;;;;;;;;;;;;;5017498;28;19910;-20
2023/09/13 04:35:29;;;;;;;;;;;;;;;;;;5017759;28;20240;-22
2023/09/13 04:37:55;;;;;;;;;;;;;;;;;;5017500;28;19910;-22
2023/09/13 04:40:21;;;;;;;;;;;;;;;;;;5017427;28;19917;-21
2023/09/13 04:42:47;;;;;;;;;;;;;;;;;;5017552;28;19977;-21
2023/09/13 04:45:13;;;;;;;;;;;;;;;;;;5015932;28;19917;-22
2023/09/13 04:47:39;;;;;;;;;;;;;;;;;;5017086;28;19961;-21
2023/09/13 04:50:05;;;;;;;;;;;;;;;;;;5016858;28;19920;-21
2023/09/13 04:52:31;;;;;;;;;;;;;;;;;;5016847;28;19924;-22
2023/09/13 04:54:57;;;;;;;;;;;;;;;;;;5016915;28;19967;-22
2023/09/13 04:57:23;;;;;;;;;;;;;;;;;;5017297;28;19910;-21
2023/09/13 04:59:49;;;;;;;;;;;;;;;;;;5017174;28;19945;-20
2023/09/13 05:02:15;;;;;;;;;;;;;;;;;;5016863;28;19945;-21
2023/09/13 05:04:41;;;;;;;;;;;;;;;;;;5016306;28;19988;-20
2023/09/13 05:07:07;;;;;;;;;;;;;;;;;;5016790;28;20254;-22
2023/09/13 05:09:36;;;;;;;;;;;;;;;;;;5016960;28;19910;-20
2023/09/13 05:12:02;;;;;;;;;;;;;;;;;;5016790;28;19914;-20
2023/09/13 05:14:28;;;;;;;;;;;;;;;;;;5016748;28;20250;-21
2023/09/13 05:16:54;;;;;;;;;;;;;;;;;;5017074;28;19918;-24
2023/09/13 05:19:20;;;;;;;;;;;;;;;;;;5016802;28;19909;-20
2023/09/13 05:21:46;;;;;;;;;;;;;;;;;;5017015;28;19921;-21
2023/09/13 05:24:12;;;;;;;;;;;;;;;;;;5016229;28;20016;-20
2023/09/13 05:26:38;;;;;;;;;;;;;;;;;;5016394;28;19910;-20
2023/09/13 05:29:04;;;;;;;;;;;;;;;;;;5016087;28;19920;-22
2023/09/13 05:31:31;;;;;;;;;;;;;;;;;;5016084;28;19920;-20
2023/09/13 05:33:57;;;;;;;;;;;;;;;;;;5016045;28;19991;-20
2023/09/13 05:36:23;;;;;;;;;;;;;;;;;;5015067;28;19960;-21
2023/09/13 05:38:49;;;;;;;;;;;;;;;;;;5016023;28;19914;-20
2023/09/13 05:41:15;;;;;;;;;;;;;;;;;;5015909;28;19920;-20
2023/09/13 05:43:41;;;;;;;;;;;;;;;;;;5015788;28;19945;-22
2023/09/13 05:46:07;;;;;;;;;;;;;;;;;;5015936;28;19976;-22
2023/09/13 05:48:32;;;;;;;;;;;;;;;;;;5016086;28;19909;-21
2023/09/13 05:50:58;;;;;;;;;;;;;;;;;;5015835;28;19993;-23
2023/09/13 05:53:25;;;;;;;;;;;;;;;;;;5014749;28;19920;-21
2023/09/13 05:55:50;;;;;;;;;;;;;;;;;;5015815;28;20241;-21
2023/09/13 05:58:16;;;;;;;;;;;;;;;;;;5013750;28;19913;-25
2023/09/13 06:00:42;;;;;;;;;;;;;;;;;;5015631;28;19916;-22
2023/09/13 06:03:08;;;;;;;;;;;;;;;;;;5014203;28;19917;-20
2023/09/13 06:05:34;;;;;;;;;;;;;;;;;;5015593;28;19968;-20
2023/09/13 06:08:00;;;;;;;;;;;;;;;;;;5015414;28;19913;-22
2023/09/13 06:10:26;;;;;;;;;;;;;;;;;;5015533;28;19965;-21
2023/09/13 06:12:52;;;;;;;;;;;;;;;;;;5014080;28;19926;-22
2023/09/13 06:15:18;;;;;;;;;;;;;;;;;;5015172;28;19920;-21
2023/09/13 06:17:44;;;;;;;;;;;;;;;;;;5014923;28;19909;-20
2023/09/13 06:20:10;;;;;;;;;;;;;;;;;;5013608;28;20337;-23
2023/09/13 06:22:36;;;;;;;;;;;;;;;;;;5014640;28;19932;-22
2023/09/13 06:25:03;;;;;;;;;;;;;;;;;;5014362;28;19933;-21
2023/09/13 06:27:29;;;;;;;;;;;;;;;;;;5014374;28;19909;-22
2023/09/13 06:29:55;;;;;;;;;;;;;;;;;;5014593;28;19917;-21
2023/09/13 06:32:20;;;;;;;;;;;;;;;;;;5013373;28;19909;-21
2023/09/13 06:34:46;;;;;;;;;;;;;;;;;;5014736;28;19910;-22
2023/09/13 06:37:12;;;;;;;;;;;;;;;;;;5014770;28;19916;-22
2023/09/13 06:39:38;;;;;;;;;;;;;;;;;;5014890;28;20248;-23
2023/09/13 06:42:04;;;;;;;;;;;;;;;;;;5015038;28;19936;-22
2023/09/13 06:44:30;;;;;;;;;;;;;;;;;;5013860;28;19913;-22
2023/09/13 06:46:56;;;;;;;;;;;;;;;;;;5013754;28;20379;-21
2023/09/13 06:49:22;;;;;;;;;;;;;;;;;;5015108;28;19910;-21
2023/09/13 06:51:48;;;;;;;;;;;;;;;;;;5014947;28;20028;-22
2023/09/13 06:54:18;;;;;;;;;;;;;;;;;;5014916;28;20303;-22
2023/09/13 06:56:44;;;;;;;;;;;;;;;;;;5014932;28;19921;-21
2023/09/13 06:59:10;;;;;;;;;;;;;;;;;;5015338;28;19910;-21
2023/09/13 07:01:36;;;;;;;;;;;;;;;;;;5014996;28;19913;-21
2023/09/13 07:04:03;;;;;;;;;;;;;;;;;;5014300;28;20027;-22
2023/09/13 07:06:29;;;;;;;;;;;;;;;;;;5014904;28;20000;-22
2023/09/13 07:08:55;;;;;;;;;;;;;;;;;;5014774;28;19941;-21
2023/09/13 07:11:20;;;;;;;;;;;;;;;;;;5014571;28;19937;-21
2023/09/13 07:13:46;;;;;;;;;;;;;;;;;;5014701;28;19910;-21
2023/09/13 07:16:12;;;;;;;;;;;;;;;;;;5014683;28;19924;-23
2023/09/13 07:18:38;;;;;;;;;;;;;;;;;;5014845;28;19910;-20
2023/09/13 07:21:04;;;;;;;;;;;;;;;;;;5014606;28;19956;-21
2023/09/13 07:23:30;;;;;;;;;;;;;;;;;;5013404;28;20312;-21
2023/09/13 07:25:57;;;;;;;;;;;;;;;;;;5015241;28;19918;-25
2023/09/13 07:28:23;;;;;;;;;;;;;;;;;;5014626;28;19910;-21
2023/09/13 07:30:48;;;;;;;;;;;;;;;;;;5014464;28;20064;-21
2023/09/13 07:33:14;;;;;;;;;;;;;;;;;;5014239;28;19909;-22
2023/09/13 07:35:40;;;;;;;;;;;;;;;;;;5013205;28;19996;-21
2023/09/13 07:38:06;;;;;;;;;;;;;;;;;;5014614;28;19917;-21
2023/09/13 07:40:32;;;;;;;;;;;;;;;;;;5014250;28;20004;-21
2023/09/13 07:42:59;;;;;;;;;;;;;;;;;;5013930;28;19909;-20
2023/09/13 07:45:25;;;;;;;;;;;;;;;;;;5014248;28;19913;-22
2023/09/13 07:47:51;;;;;;;;;;;;;;;;;;5013153;28;20203;-21
2023/09/13 07:50:17;;;;;;;;;;;;;;;;;;5012878;28;19953;-21
2023/09/13 07:52:43;;;;;;;;;;;;;;;;;;5014245;28;19993;-22
2023/09/13 07:55:08;;;;;;;;;;;;;;;;;;5014219;28;20307;-21
2023/09/13 07:57:34;;;;;;;;;;;;;;;;;;5014164;28;19910;-22
2023/09/13 08:00:00;;;;;;;;;;;;;;;;;;5014346;28;19914;-22
2023/09/13 08:02:26;;;;;;;;;;;;;;;;;;5013110;28;20013;-22
2023/09/13 08:04:52;;;;;;;;;;;;;;;;;;5014033;28;19921;-21
2023/09/13 08:07:18;;;;;;;;;;;;;;;;;;5013362;28;19920;-21
2023/09/13 08:09:44;;;;;;;;;;;;;;;;;;5013199;28;19910;-22
2023/09/13 08:12:10;;;;;;;;;;;;;;;;;;5014260;28;19909;-21
2023/09/13 08:14:36;;;;;;;;;;;;;;;;;;5014422;28;20356;-28
2023/09/13 08:17:02;;;;;;;;;;;;;;;;;;5014238;28;19910;-21
2023/09/13 08:19:28;;;;;;;;;;;;;;;;;;5013161;28;20336;-20
2023/09/13 08:21:54;;;;;;;;;;;;;;;;;;5016027;28;19909;-21
2023/09/13 08:24:20;;;;;;;;;;;;;;;;;;5017385;28;19914;-22
2023/09/13 08:26:46;;;;;;;;;;;;;;;;;;5017563;28;20332;-20
2023/09/13 08:29:12;;;;;;;;;;;;;;;;;;5017544;28;20004;-22
2023/09/13 08:31:38;;;;;;;;;;;;;;;;;;5017830;28;19948;-21
2023/09/13 08:34:04;;;;;;;;;;;;;;;;;;5017147;28;19964;-20
2023/09/13 08:36:30;;;;;;;;;;;;;;;;;;5017308;28;20352;-22
2023/09/13 08:38:56;;;;;;;;;;;;;;;;;;5017646;28;19909;-22
2023/09/13 08:41:22;;;;;;;;;;;;;;;;;;5017365;28;20008;-21
2023/09/13 08:43:48;;;;;;;;;;;;;;;;;;5016948;28;19910;-21
2023/09/13 08:46:14;;;;;;;;;;;;;;;;;;5016519;28;19952;-21
2023/09/13 08:48:40;;;;;;;;;;;;;;;;;;5016295;28;19909;-21
2023/09/13 08:51:06;;;;;;;;;;;;;;;;;;5016632;28;19910;-23
2023/09/13 08:53:32;;;;;;;;;;;;;;;;;;5016155;28;19913;-23
2023/09/13 08:55:58;;;;;;;;;;;;;;;;;;5015047;28;19909;-23
2023/09/13 08:58:24;;;;;;;;;;;;;;;;;;5016326;28;19910;-21
2023/09/13 09:00:50;;;;;;;;;;;;;;;;;;5014955;28;19910;-22
2023/09/13 09:03:16;;;;;;;;;;;;;;;;;;5015662;28;19917;-21
2023/09/13 09:05:42;;;;;;;;;;;;;;;;;;5015878;28;19921;-21
2023/09/13 09:08:10;;;;;;;;;;;;;;;;;;5014796;28;19964;-21
2023/09/13 09:10:35;;;;;;;;;;;;;;;;;;5014630;28;20013;-23
2023/09/13 09:13:01;;;;;;;;;;;;;;;;;;5015662;28;19949;-21
2023/09/13 09:15:27;;;;;;;;;;;;;;;;;;5014700;28;19920;-20
2023/09/13 09:17:54;;;;;;;;;;;;;;;;;;5014619;28;19909;-32
2023/09/13 09:20:20;;;;;;;;;;;;;;;;;;5014617;28;20031;-22
2023/09/13 09:22:45;;;;;;;;;;;;;;;;;;5015707;28;19945;-21
2023/09/13 09:25:11;;;;;;;;;;;;;;;;;;5015852;28;20286;-23
2023/09/13 09:27:38;;;;;;;;;;;;;;;;;;5016385;28;19921;-21
2023/09/13 09:30:04;;;;;;;;;;;;;;;;;;5016311;28;19910;-21
2023/09/13 09:32:30;;;;;;;;;;;;;;;;;;5014982;28;19910;-20
2023/09/13 09:34:56;;;;;;;;;;;;;;;;;;5016303;28;20447;-21
2023/09/13 09:37:22;;;;;;;;;;;;;;;;;;5014882;28;19932;-34
2023/09/13 09:39:48;;;;;;;;;;;;;;;;;;5016109;28;19916;-23
2023/09/13 09:42:14;;;;;;;;;;;;;;;;;;5015789;28;19916;-22
2023/09/13 09:44:40;;;;;;;;;;;;;;;;;;5015998;28;19913;-21
2023/09/13 09:47:06;;;;;;;;;;;;;;;;;;5014865;28;19920;-20
2023/09/13 09:49:32;;;;;;;;;;;;;;;;;;5014865;28;19910;-22
2023/09/13 09:51:58;;;;;;;;;;;;;;;;;;5016113;28;19945;-25
2023/09/13 09:54:24;;;;;;;;;;;;;;;;;;5014692;28;19909;-21
2023/09/13 09:56:50;;;;;;;;;;;;;;;;;;5015816;28;19992;-21
2023/09/13 09:59:16;;;;;;;;;;;;;;;;;;5015304;28;20348;-21
2023/09/13 10:01:42;;;;;;;;;;;;;;;;;;5015683;28;19925;-20
2023/09/13 10:04:08;;;;;;;;;;;;;;;;;;5015185;28;19921;-21
2023/09/13 10:06:34;;;;;;;;;;;;;;;;;;5015672;28;19909;-22
2023/09/13 10:09:00;;;;;;;;;;;;;;;;;;5015747;28;19910;-21
2023/09/13 10:11:26;;;;;;;;;;;;;;;;;;5015661;28;19909;-21
2023/09/13 10:13:52;;;;;;;;;;;;;;;;;;5015299;28;19910;-21
2023/09/13 10:16:18;;;;;;;;;;;;;;;;;;5014450;28;19920;-21
2023/09/13 10:18:44;;;;;;;;;;;;;;;;;;5015374;28;20299;-22
2023/09/13 10:21:10;;;;;;;;;;;;;;;;;;5015597;28;20040;-22
2023/09/13 10:23:36;;;;;;;;;;;;;;;;;;5015314;28;19913;-22
2023/09/13 10:26:02;;;;;;;;;;;;;;;;;;5015273;28;20073;-21
2023/09/13 10:28:28;;;;;;;;;;;;;;;;;;5014959;28;19914;-21
2023/09/13 10:30:54;;;;;;;;;;;;;;;;;;5014882;28;19913;-21
2023/09/13 10:33:20;;;;;;;;;;;;;;;;;;5014793;28;19968;-22
2023/09/13 10:35:46;;;;;;;;;;;;;;;;;;5013754;28;19920;-29
2023/09/13 10:38:13;;;;;;;;;;;;;;;;;;5013755;28;19909;-22
2023/09/13 10:40:39;;;;;;;;;;;;;;;;;;5015133;28;20282;-21
2023/09/13 10:43:05;;;;;;;;;;;;;;;;;;5014730;28;20000;-20
2023/09/13 10:45:31;;;;;;;;;;;;;;;;;;5014590;28;20000;-21
2023/09/13 10:47:58;;;;;;;;;;;;;;;;;;5013814;28;19957;-22
2023/09/13 10:50:24;;;;;;;;;;;;;;;;;;5015004;28;20017;-20
2023/09/13 10:52:50;;;;;;;;;;;;;;;;;;5013663;28;19910;-22
2023/09/13 10:55:16;;;;;;;;;;;;;;;;;;5014981;28;19981;-23
2023/09/13 10:57:42;;;;;;;;;;;;;;;;;;5013489;28;19914;-22
2023/09/13 11:00:11;;;;;;;;;;;;;;;;;;5014246;28;19909;-22
2023/09/13 11:02:37;;;;;;;;;;;;;;;;;;5013337;28;19949;-21
2023/09/13 11:05:03;;;;;;;;;;;;;;;;;;5013970;28;19925;-20
2023/09/13 11:07:29;;;;;;;;;;;;;;;;;;5014165;28;19913;-22
2023/09/13 11:09:55;;;;;;;;;;;;;;;;;;5014422;28;20357;-21
2023/09/13 11:12:21;;;;;;;;;;;;;;;;;;5014002;28;20491;-21
2023/09/13 11:14:47;;;;;;;;;;;;;;;;;;5014080;28;19917;-21
2023/09/13 11:17:13;;;;;;;;;;;;;;;;;;5014066;28;19914;-22
2023/09/13 11:19:39;;;;;;;;;;;;;;;;;;5012867;28;20265;-23
2023/09/13 11:22:06;;;;;;;;;;;;;;;;;;5014106;28;19972;-21
2023/09/13 11:24:32;;;;;;;;;;;;;;;;;;5013079;28;19917;-22
2023/09/13 11:26:58;;;;;;;;;;;;;;;;;;5014579;28;19975;-21
2023/09/13 11:29:24;;;;;;;;;;;;;;;;;;5014716;28;20007;-21
2023/09/13 11:31:50;;;;;;;;;;;;;;;;;;5014195;28;19910;-23
2023/09/13 11:34:16;;;;;;;;;;;;;;;;;;5014361;28;19910;-21
2023/09/13 11:36:42;;;;;;;;;;;;;;;;;;5014290;28;19964;-21
2023/09/13 11:39:08;;;;;;;;;;;;;;;;;;5014208;28;20412;-21
2023/09/13 11:41:34;;;;;;;;;;;;;;;;;;5013423;28;19921;-21
2023/09/13 11:43:59;;;;;;;;;;;;;;;;;;5014286;28;19917;-22
2023/09/13 11:46:25;;;;;;;;;;;;;;;;;;5014544;28;20352;-20
2023/09/13 11:48:53;;;;;;;;;;;;;;;;;;5014430;28;19914;-21
2023/09/13 11:51:19;;;;;;;;;;;;;;;;;;5013395;28;19910;-23
2023/09/13 11:53:45;;;;;;;;;;;;;;;;;;5014432;28;19910;-22
2023/09/13 11:56:11;;;;;;;;;;;;;;;;;;5015768;28;20387;-20
2023/09/13 11:58:37;;;;;;;;;;;;;;;;;;5018580;28;19967;-21
2023/09/13 12:01:03;;;;;;;;;;;;;;;;;;5018209;28;19920;-21
2023/09/13 12:03:30;;;;;;;;;;;;;;;;;;5017980;28;20250;-21
2023/09/13 12:05:55;;;;;;;;;;;;;;;;;;5018012;28;20221;-23
2023/09/13 12:08:22;;;;;;;;;;;;;;;;;;5016768;28;19925;-22
2023/09/13 12:10:49;;;;;;;;;;;;;;;;;;5018126;28;19916;-21
2023/09/13 12:13:15;;;;;;;;;;;;;;;;;;5017750;28;19909;-21
2023/09/13 12:15:41;;;;;;;;;;;;;;;;;;5017836;28;20402;-21
2023/09/13 12:18:07;;;;;;;;;;;;;;;;;;5017922;28;19909;-21
2023/09/13 12:20:33;;;;;;;;;;;;;;;;;;5017113;28;19910;-21
2023/09/13 12:22:59;;;;;;;;;;;;;;;;;;5016611;28;19910;-20
2023/09/13 12:25:28;;;;;;;;;;;;;;;;;;5017596;28;19914;-21
2023/09/13 12:27:54;;;;;;;;;;;;;;;;;;5017851;28;19980;-22
2023/09/13 12:30:20;;;;;;;;;;;;;;;;;;5017603;28;20371;-20
2023/09/13 12:32:47;;;;;;;;;;;;;;;;;;5017540;28;19909;-22
2023/09/13 12:35:13;;;;;;;;;;;;;;;;;;5017541;28;19964;-21
2023/09/13 12:37:39;;;;;;;;;;;;;;;;;;5017706;28;19913;-23
2023/09/13 12:40:05;;;;;;;;;;;;;;;;;;5017733;28;19910;-22
2023/09/13 12:42:31;;;;;;;;;;;;;;;;;;5017289;28;19914;-21
2023/09/13 12:44:57;;;;;;;;;;;;;;;;;;5016137;28;19914;-22
2023/09/13 12:47:23;;;;;;;;;;;;;;;;;;5017467;28;19910;-21
2023/09/13 12:49:50;;;;;;;;;;;;;;;;;;5017073;28;19972;-20
2023/09/13 12:52:16;;;;;;;;;;;;;;;;;;5016050;28;19909;-22
2023/09/13 12:54:42;;;;;;;;;;;;;;;;;;5016004;28;19921;-21
2023/09/13 12:57:08;;;;;;;;;;;;;;;;;;5016989;28;19957;-21
2023/09/13 12:59:34;;;;;;;;;;;;;;;;;;5016834;28;20004;-21
2023/09/13 13:02:00;;;;;;;;;;;;;;;;;;5015766;28;19932;-20
2023/09/13 13:04:26;;;;;;;;;;;;;;;;;;5016764;28;20209;-22
2023/09/13 13:06:54;;;;;;;;;;;;;;;;;;5016039;28;20138;-21
2023/09/13 13:09:21;;;;;;;;;;;;;;;;;;5016866;28;20333;-20
2023/09/13 13:11:49;;;;;;;;;;;;;;;;;;5016576;28;19933;-21
2023/09/13 13:14:17;;;;;;;;;;;;;;;;;;5016858;28;19910;-21
2023/09/13 13:16:44;;;;;;;;;;;;;;;;;;5016640;28;20209;-21
2023/09/13 13:19:10;;;;;;;;;;;;;;;;;;5016828;28;19909;-23
2023/09/13 13:21:36;;;;;;;;;;;;;;;;;;5016415;28;19912;-21
2023/09/13 13:24:02;;;;;;;;;;;;;;;;;;5016221;28;19914;-22
2023/09/13 13:26:27;;;;;;;;;;;;;;;;;;5015396;28;19909;-21
2023/09/13 13:28:55;;;;;;;;;;;;;;;;;;5016307;28;19909;-22
2023/09/13 13:31:21;;;;;;;;;;;;;;;;;;5016615;28;20079;-21
2023/09/13 13:33:47;;;;;;;;;;;;;;;;;;5015311;28;20333;-20
2023/09/13 13:36:13;;;;;;;;;;;;;;;;;;5016755;28;20312;-21
2023/09/13 13:38:42;;;;;;;;;;;;;;;;;;5016363;28;19910;-21
2023/09/13 13:41:08;;;;;;;;;;;;;;;;;;5015216;28;19917;-21
2023/09/13 13:43:34;;;;;;;;;;;;;;;;;;5016042;28;19980;-21
2023/09/13 13:46:00;;;;;;;;;;;;;;;;;;5015929;28;19914;-21
2023/09/13 13:48:26;;;;;;;;;;;;;;;;;;5014884;28;20374;-20
2023/09/13 13:50:52;;;;;;;;;;;;;;;;;;5015976;28;19913;-20
2023/09/13 13:53:20;;;;;;;;;;;;;;;;;;5016111;28;19909;-23
2023/09/13 13:55:45;;;;;;;;;;;;;;;;;;5015830;28;19917;-21
2023/09/13 13:58:11;;;;;;;;;;;;;;;;;;5016168;28;19917;-21
2023/09/13 14:00:37;;;;;;;;;;;;;;;;;;5015820;28;19909;-21
2023/09/13 14:03:03;;;;;;;;;;;;;;;;;;5014612;28;20252;-22
2023/09/13 14:05:31;;;;;;;;;;;;;;;;;;5015955;28;19968;-21
2023/09/13 14:07:57;;;;;;;;;;;;;;;;;;5015916;28;19909;-21
2023/09/13 14:10:23;;;;;;;;;;;;;;;;;;5014560;28;19969;-21
2023/09/13 14:12:49;;;;;;;;;;;;;;;;;;5014488;28;19975;-25
2023/09/13 14:15:16;;;;;;;;;;;;;;;;;;5014525;28;19975;-20
2023/09/13 14:17:41;;;;;;;;;;;;;;;;;;5015454;28;20357;-21
2023/09/13 14:20:07;;;;;;;;;;;;;;;;;;5014897;28;19963;-21
2023/09/13 14:22:33;;;;;;;;;;;;;;;;;;5015452;28;19916;-22
2023/09/13 14:24:59;;;;;;;;;;;;;;;;;;5015615;28;19913;-20
2023/09/13 14:27:25;;;;;;;;;;;;;;;;;;5015345;28;19945;-21
2023/09/13 14:29:51;;;;;;;;;;;;;;;;;;5015540;28;19914;-20
2023/09/13 14:32:17;;;;;;;;;;;;;;;;;;5015330;28;20357;-22
2023/09/13 14:34:52;;;;;;;;;;;;;;;;;;5014235;28;19913;-22
2023/09/13 14:37:18;;;;;;;;;;;;;;;;;;5015137;28;19974;-20
2023/09/13 14:39:44;;;;;;;;;;;;;;;;;;5015331;28;19924;-21
2023/09/13 14:42:09;;;;;;;;;;;;;;;;;;5013841;28;19970;-22
2023/09/13 14:44:37;;;;;;;;;;;;;;;;;;5014753;28;20367;-22
2023/09/13 14:47:03;;;;;;;;;;;;;;;;;;5014632;28;19909;-21
2023/09/13 14:49:29;;;;;;;;;;;;;;;;;;5014776;28;19941;-21
2023/09/13 14:51:55;;;;;;;;;;;;;;;;;;5014781;28;19975;-21
2023/09/13 14:54:21;;;;;;;;;;;;;;;;;;5015112;28;19910;-21
2023/09/13 14:56:47;;;;;;;;;;;;;;;;;;5014979;28;20337;-22
2023/09/13 14:59:14;;;;;;;;;;;;;;;;;;5014684;28;19909;-23
2023/09/13 15:01:40;;;;;;;;;;;;;;;;;;5014494;28;19909;-22
2023/09/13 15:04:09;;;;;;;;;;;;;;;;;;5013868;28;19921;-23
2023/09/13 15:06:37;;;;;;;;;;;;;;;;;;5013255;28;20221;-20
2023/09/13 15:09:03;;;;;;;;;;;;;;;;;;5014455;28;20340;-22
2023/09/13 15:11:29;;;;;;;;;;;;;;;;;;5014647;28;19909;-21
2023/09/13 15:13:55;;;;;;;;;;;;;;;;;;5013812;28;19953;-22
2023/09/13 15:16:21;;;;;;;;;;;;;;;;;;5013724;28;19996;-21
2023/09/13 15:18:47;;;;;;;;;;;;;;;;;;5013865;28;19968;-21
2023/09/13 15:21:13;;;;;;;;;;;;;;;;;;5013510;28;19909;-21
2023/09/13 15:23:39;;;;;;;;;;;;;;;;;;5013438;28;19917;-22
2023/09/13 15:26:05;;;;;;;;;;;;;;;;;;5013567;28;19913;-22
2023/09/13 15:28:31;;;;;;;;;;;;;;;;;;5013492;28;20355;-20
2023/09/13 15:30:57;;;;;;;;;;;;;;;;;;5015175;28;19921;-20
2023/09/13 15:33:23;;;;;;;;;;;;;;;;;;5017765;28;20000;-22
2023/09/13 15:35:49;;;;;;;;;;;;;;;;;;5016930;28;19910;-21
2023/09/13 15:38:15;;;;;;;;;;;;;;;;;;5018313;28;19996;-22
2023/09/13 15:40:41;;;;;;;;;;;;;;;;;;5018414;28;19914;-21
2023/09/13 15:43:07;;;;;;;;;;;;;;;;;;5018464;28;19941;-21
2023/09/13 15:45:36;;;;;;;;;;;;;;;;;;5018217;28;20004;-20
2023/09/13 15:48:02;;;;;;;;;;;;;;;;;;5018165;28;20344;-22
2023/09/13 15:50:28;;;;;;;;;;;;;;;;;;5018267;28;19910;-22
2023/09/13 15:52:54;;;;;;;;;;;;;;;;;;5018109;28;19981;-22
2023/09/13 15:55:20;;;;;;;;;;;;;;;;;;5018262;28;19932;-20
2023/09/13 15:57:46;;;;;;;;;;;;;;;;;;5018556;28;19917;-21
2023/09/13 16:00:12;;;;;;;;;;;;;;;;;;5018627;28;19921;-23
2023/09/13 16:02:38;;;;;;;;;;;;;;;;;;5018457;28;19910;-22
2023/09/13 16:05:04;;;;;;;;;;;;;;;;;;5017787;28;19952;-21
2023/09/13 16:07:34;;;;;;;;;;;;;;;;;;5018484;28;19910;-21
2023/09/13 16:10:00;;;;;;;;;;;;;;;;;;5018102;28;20300;-22
2023/09/13 16:12:26;;;;;;;;;;;;;;;;;;5017946;28;19914;-22
2023/09/13 16:14:52;;;;;;;;;;;;;;;;;;5017915;28;20007;-21
2023/09/13 16:17:18;;;;;;;;;;;;;;;;;;5017809;28;19913;-23
2023/09/13 16:19:44;;;;;;;;;;;;;;;;;;5016504;28;19909;-20
2023/09/13 16:22:10;;;;;;;;;;;;;;;;;;5017571;28;19977;-20
2023/09/13 16:24:36;;;;;;;;;;;;;;;;;;5017988;28;20328;-20
2023/09/13 16:27:03;;;;;;;;;;;;;;;;;;5017663;28;20368;-20
2023/09/13 16:29:29;;;;;;;;;;;;;;;;;;5017577;28;19996;-21
2023/09/13 16:31:55;;;;;;;;;;;;;;;;;;5017526;28;20021;-22
2023/09/13 16:34:21;;;;;;;;;;;;;;;;;;5017621;28;19932;-22
2023/09/13 16:36:47;;;;;;;;;;;;;;;;;;5017124;28;19972;-20